Time;durP1;ratioP1;P1;durP2;ratioP2;P2;SDS_P1;SDS_P2;PMS_P1;PMS_P2;Temp;Humidity;BMP_temperature;BMP_pressure;BME280_temperature;BME280_humidity;BME280_pressure;Samples;Min_cycle;Max_cycle;Signal;HPM_P1;HPM_P2
2022/06/11 00:01:46;;;;;;;17.70;7.13;;;;;;;-144.47;51.59;53247.38;5022935;28;20213;-69
2022/06/11 00:04:16;;;;;;;22.90;8.15;;;;;;;-144.47;51.45;53213.63;5017011;28;20022;-71
2022/06/11 00:06:46;;;;;;;19.88;7.28;;;;;;;-144.47;51.40;53235.47;5006091;28;20017;-73
2022/06/11 00:09:12;;;;;;;16.70;7.70;;;;;;;-144.47;51.72;53271.22;5006226;28;20045;-71
2022/06/11 00:11:39;;;;;;;17.98;7.05;;;;;;;-144.47;51.72;53227.53;5009916;28;20215;-70
2022/06/11 00:14:05;;;;;;;20.80;8.48;;;;;;;-144.47;52.17;53283.13;4996367;28;20479;-70
2022/06/11 00:16:30;;;;;;;27.15;8.43;;;;;;;-144.47;52.29;53287.13;5014886;28;20112;-70
2022/06/11 00:18:58;;;;;;;14.00;7.50;;;;;;;-144.47;52.48;53229.50;5015429;28;20025;-69
2022/06/11 00:21:27;;;;;;;12.95;7.25;;;;;;;-144.47;52.51;53235.47;5028398;28;20060;-68
2022/06/11 00:23:53;;;;;;;20.60;7.82;;;;;;;-144.47;52.59;53261.28;5013806;28;20034;-69
2022/06/11 00:26:20;;;;;;;16.60;8.25;;;;;;;-144.47;52.94;53289.09;5010601;28;20292;-71
2022/06/11 00:28:46;;;;;;;15.70;8.10;;;;;;;-144.47;53.18;53275.19;5007926;28;20350;-72
2022/06/11 00:31:12;;;;;;;23.23;8.57;;;;;;;-144.47;53.29;53247.38;5012590;28;20040;-71
2022/06/11 00:33:38;;;;;;;27.33;8.98;;;;;;;-144.47;52.94;53271.22;5012974;28;20056;-70
2022/06/11 00:36:06;;;;;;;17.67;9.85;;;;;;;-144.47;52.86;53203.69;5018426;28;20432;-68
2022/06/11 00:38:32;;;;;;;21.92;9.88;;;;;;;-144.47;53.11;53287.13;5025029;28;20485;-69
2022/06/11 00:40:58;;;;;;;17.95;9.50;;;;;;;-144.47;53.33;53221.56;5029664;28;20030;-69
2022/06/11 00:43:26;;;;;;;21.15;10.07;;;;;;;-144.47;53.66;53225.53;5012385;28;20028;-68
2022/06/11 00:45:56;;;;;;;18.13;9.13;;;;;;;-144.47;53.38;53267.25;5018213;28;20104;-73
2022/06/11 00:48:24;;;;;;;22.73;10.38;;;;;;;-144.47;53.31;53263.28;5027710;28;20038;-71
2022/06/11 00:51:23;;;;;;;22.02;9.93;;;;;;;-144.47;53.58;53191.78;5020729;28;20491;-72
2022/06/11 00:53:54;;;;;;;16.45;9.25;;;;;;;-144.47;53.52;53263.28;4995785;28;20049;-70
2022/06/11 00:56:27;;;;;;;21.10;9.85;;;;;;;-144.47;53.51;53253.34;5024695;28;20125;-69
2022/06/11 00:58:56;;;;;;;16.90;9.07;;;;;;;-144.47;53.37;53233.47;5007406;28;20440;-69
2022/06/11 01:01:24;;;;;;;16.58;8.95;;;;;;;-144.47;53.47;53269.22;5021045;28;20036;-68
2022/06/11 01:03:53;;;;;;;14.70;8.93;;;;;;;-144.47;53.62;53231.50;5008139;28;20040;-69
2022/06/11 01:06:21;;;;;;;18.98;8.48;;;;;;;-144.47;53.86;53257.31;5013541;28;20259;-71
2022/06/11 01:08:58;;;;;;;20.35;9.18;;;;;;;-144.47;54.09;53265.25;5014666;28;20062;-70
2022/06/11 01:11:39;;;;;;;17.42;8.57;;;;;;;-144.47;54.36;53243.41;5015338;28;20034;-68
2022/06/11 01:14:35;;;;;;;31.63;10.38;;;;;;;-144.47;54.58;53277.19;5027409;28;20094;-70
2022/06/11 01:17:45;;;;;;;19.58;8.68;;;;;;;-144.47;54.69;53247.38;5027001;28;20506;-69
2022/06/11 01:20:22;;;;;;;35.85;12.50;;;;;;;-144.47;55.09;53271.22;5001819;28;20029;-71
2022/06/11 01:23:28;;;;;;;17.92;8.25;;;;;;;-144.47;54.89;53249.38;4998213;28;20030;-68
2022/06/11 01:26:24;;;;;;;20.55;8.45;;;;;;;-144.47;55.03;53277.19;4991645;28;20018;-68
2022/06/11 01:29:28;;;;;;;13.60;8.00;;;;;;;-144.47;55.05;53285.13;5005747;28;20026;-70
2022/06/11 01:32:01;;;;;;;18.65;8.07;;;;;;;-144.47;55.43;53239.44;5010943;28;20049;-71
2022/06/11 01:34:57;;;;;;;15.20;8.40;;;;;;;-144.47;55.11;53275.19;5026287;28;20031;-70
2022/06/11 01:37:31;;;;;;;21.80;9.80;;;;;;;-144.47;55.38;53269.22;5012581;28;20014;-72
2022/06/11 01:40:14;;;;;;;17.85;8.82;;;;;;;-144.47;55.62;53245.41;5013823;28;20077;-69
2022/06/11 01:42:49;;;;;;;22.33;8.73;;;;;;;-144.47;55.77;53259.31;5020404;28;20038;-68
2022/06/11 01:45:21;;;;;;;14.02;8.32;;;;;;;-144.47;56.01;53265.25;5011332;28;20036;-70
2022/06/11 01:47:48;;;;;;;15.02;8.55;;;;;;;-144.47;56.22;53271.22;5024977;28;20025;-70
2022/06/11 01:50:17;;;;;;;20.73;9.65;;;;;;;-144.47;56.47;53241.44;5031229;28;20034;-69
2022/06/11 01:53:06;;;;;;;18.45;8.45;;;;;;;-144.47;56.67;53239.44;5018854;28;20033;-68
2022/06/11 01:55:50;;;;;;;26.15;9.27;;;;;;;-144.47;56.87;53281.16;5024185;28;20029;-71
2022/06/11 01:58:56;;;;;;;22.13;9.18;;;;;;;-144.47;57.52;53265.25;4998269;28;20032;-71
2022/06/11 02:01:37;;;;;;;21.73;8.00;;;;;;;-144.47;57.79;53263.28;5015862;28;20029;-71
2022/06/11 02:04:15;;;;;;;45.05;10.00;;;;;;;-144.47;57.50;53261.28;5030731;28;20068;-72
2022/06/11 02:06:49;;;;;;;25.30;9.18;;;;;;;-144.47;57.61;53275.19;5019937;28;20059;-68
2022/06/11 02:09:33;;;;;;;37.28;10.25;;;;;;;-144.47;57.83;53249.38;5027912;28;20034;-69
2022/06/11 02:12:11;;;;;;;21.60;9.02;;;;;;;-144.47;58.12;53279.16;5014143;28;20281;-71
2022/06/11 02:14:41;;;;;;;20.92;9.73;;;;;;;-144.47;58.09;53293.06;5007551;28;20014;-69
2022/06/11 02:17:12;;;;;;;29.15;9.90;;;;;;;-144.47;57.98;53267.25;5013167;28;20029;-67
2022/06/11 02:19:48;;;;;;;23.42;9.18;;;;;;;-144.47;58.18;53267.25;5013154;28;20054;-70
2022/06/11 02:22:19;;;;;;;16.98;8.55;;;;;;;-144.47;58.20;53247.38;5014442;28;20560;-72
2022/06/11 02:24:53;;;;;;;19.58;9.73;;;;;;;-144.47;58.44;53279.16;5012432;28;20207;-68
2022/06/11 02:27:25;;;;;;;25.17;9.27;;;;;;;-144.47;58.53;53261.28;5000672;28;20026;-71
2022/06/11 02:29:52;;;;;;;20.33;9.43;;;;;;;-144.47;58.93;53285.13;5012468;28;20099;-68
2022/06/11 02:32:21;;;;;;;22.73;8.90;;;;;;;-144.47;58.95;53265.25;5018406;28;20367;-67
2022/06/11 02:34:48;;;;;;;;;;;;;;;-144.47;59.69;53235.47;5008331;28;20243;-71
2022/06/11 02:37:23;;;;;;;21.45;8.32;;;;;;;-144.47;60.23;53263.28;4995696;28;19909;-71
2022/06/11 02:39:51;;;;;;;18.98;8.82;;;;;;;-144.47;60.89;53289.09;5004959;28;20033;-69
2022/06/11 02:42:19;;;;;;;20.17;8.93;;;;;;;-144.47;61.22;53267.25;5030508;28;20063;-71
2022/06/11 02:44:45;;;;;;;24.67;9.07;;;;;;;-144.47;61.56;53267.25;5017128;28;20395;-70
2022/06/11 02:47:13;;;;;;;17.70;8.40;;;;;;;-144.47;61.72;53293.06;5022692;28;20328;-69
2022/06/11 02:49:39;;;;;;;30.00;8.85;;;;;;;-144.47;61.52;53269.22;4990712;28;20069;-70
2022/06/11 02:52:18;;;;;;;23.55;8.57;;;;;;;-144.47;61.62;53271.22;5010515;28;20117;-71
2022/06/11 02:54:45;;;;;;;20.00;7.38;;;;;;;-144.47;61.43;53301.03;5026068;28;20033;-69
2022/06/11 02:57:17;;;;;;;23.95;8.52;;;;;;;-144.47;61.46;53277.19;5031571;28;20026;-70
2022/06/11 02:59:45;;;;;;;28.08;8.35;;;;;;;-144.47;61.25;53281.16;5014962;28;20466;-68
2022/06/11 03:02:11;;;;;;;24.70;8.13;;;;;;;-144.47;61.64;53291.09;5012631;28;20498;-72
2022/06/11 03:04:36;;;;;;;18.00;8.23;;;;;;;-144.47;61.59;53271.22;5014555;28;20120;-69
2022/06/11 03:07:03;;;;;;;20.42;7.78;;;;;;;-144.47;61.60;53269.22;5023193;28;20045;-70
2022/06/11 03:09:32;;;;;;;22.70;7.53;;;;;;;-144.47;61.53;53279.16;5015939;28;20032;-71
2022/06/11 03:11:58;;;;;;;24.45;7.90;;;;;;;-144.47;61.53;53320.88;5013337;28;20083;-69
2022/06/11 03:14:23;;;;;;;29.65;8.18;;;;;;;-144.47;61.36;53301.03;5015571;28;20120;-67
2022/06/11 03:16:50;;;;;;;16.90;7.72;;;;;;;-144.47;60.93;53265.25;5011447;28;20125;-70
2022/06/11 03:19:20;;;;;;;19.35;7.88;;;;;;;-144.47;60.92;53271.22;5007805;28;20056;-68
2022/06/11 03:21:47;;;;;;;19.23;7.22;;;;;;;-144.47;60.55;53277.19;5011516;28;20075;-69
2022/06/11 03:24:12;;;;;;;20.35;8.68;;;;;;;-144.47;60.47;53275.19;5008899;28;20068;-71
2022/06/11 03:26:38;;;;;;;38.15;8.32;;;;;;;-144.47;60.34;53308.97;5015177;28;20022;-69
2022/06/11 03:29:04;;;;;;;26.42;7.28;;;;;;;-144.47;60.14;53326.84;5018682;28;20112;-68
2022/06/11 03:31:29;;;;;;;22.25;7.50;;;;;;;-144.47;60.03;53253.34;5003137;28;20052;-70
2022/06/11 03:33:55;;;;;;;26.05;8.07;;;;;;;-144.47;59.77;53324.84;5020719;28;20025;-71
2022/06/11 03:36:20;;;;;;;18.95;7.88;;;;;;;-144.47;59.68;53275.19;5015362;28;20034;-72
2022/06/11 03:38:47;;;;;;;21.23;7.90;;;;;;;-144.47;59.67;53269.22;5011337;28;20166;-69
2022/06/11 03:41:14;;;;;;;37.13;11.95;;;;;;;-144.47;59.56;53265.25;5010127;28;20133;-68
2022/06/11 03:43:40;;;;;;;29.98;8.13;;;;;;;-144.47;59.65;53265.25;5022015;28;20022;-72
2022/06/11 03:46:06;;;;;;;32.53;9.10;;;;;;;-144.47;59.57;53277.19;5020894;28;20025;-69
2022/06/11 03:48:34;;;;;;;23.20;7.32;;;;;;;-144.47;59.57;53265.25;5028537;28;20018;-70
2022/06/11 03:51:00;;;;;;;18.30;7.17;;;;;;;-144.47;59.56;53295.06;4995005;28;20025;-72
2022/06/11 03:53:28;;;;;;;15.75;7.53;;;;;;;-144.47;59.25;53273.22;5024220;28;20529;-69
2022/06/11 03:55:54;;;;;;;38.20;8.35;;;;;;;-144.47;59.25;53297.03;5023137;28;20084;-69
2022/06/11 03:58:21;;;;;;;31.88;7.82;;;;;;;-144.47;59.20;53281.16;5010893;28;20036;-68
2022/06/11 04:03:33;;;;;;;22.67;7.40;;;;;;;-144.47;58.94;53267.25;5017266;28;20028;-72
2022/06/11 04:05:59;;;;;;;20.92;7.18;;;;;;;-144.47;58.76;53263.28;5027642;28;20546;-72
2022/06/11 04:08:25;;;;;;;34.92;7.72;;;;;;;-144.47;58.71;53241.44;5028568;28;20025;-70
2022/06/11 04:10:53;;;;;;;35.65;7.15;;;;;;;-144.47;58.23;53269.22;5025582;23;20022;-69
2022/06/11 04:13:21;;;;;;;22.90;7.18;;;;;;;-144.47;58.02;53247.38;5009479;28;20064;-67
2022/06/11 04:15:47;;;;;;;24.20;8.32;;;;;;;-144.47;57.88;53285.13;5007294;28;20026;-67
2022/06/11 04:18:31;;;;;;;21.75;7.05;;;;;;;-144.47;57.80;53267.25;5009440;28;20021;-70
2022/06/11 04:20:57;;;;;;;23.77;7.32;;;;;;;-144.47;57.24;53203.69;5008877;28;20113;-70
2022/06/11 04:23:29;;;;;;;21.60;7.22;;;;;;;-144.47;57.06;53233.47;5009972;28;20133;-69
2022/06/11 04:25:59;;;;;;;21.45;7.38;;;;;;;-144.47;56.79;53243.41;5009672;28;20025;-68
2022/06/11 04:28:29;;;;;;;22.60;8.00;;;;;;;-144.47;56.70;53221.56;5009343;28;20049;-69
2022/06/11 04:30:56;;;;;;;23.40;7.13;;;;;;;-144.47;56.15;53239.44;5009097;28;20049;-70
2022/06/11 04:33:21;;;;;;;20.80;7.15;;;;;;;-144.47;56.24;53261.28;5004673;28;20026;-68
2022/06/11 04:35:47;;;;;;;14.10;6.53;;;;;;;-144.47;56.14;53271.22;5010249;28;20462;-69
2022/06/11 04:38:13;;;;;;;23.50;6.82;;;;;;;-144.47;56.32;53243.41;5010224;28;20018;-64
2022/06/11 04:40:38;;;;;;;20.10;6.63;;;;;;;-144.47;56.79;53223.56;5009616;28;20041;-66
2022/06/11 04:43:03;;;;;;;17.38;6.85;;;;;;;-144.47;57.06;53263.28;5009110;28;20109;-68
2022/06/11 04:45:29;;;;;;;18.75;7.03;;;;;;;-144.47;57.03;53235.47;5009280;28;20393;-66
2022/06/11 04:47:55;;;;;;;16.48;7.40;;;;;;;-144.47;56.63;53221.56;5008502;28;20064;-67
2022/06/11 04:50:23;;;;;;;26.63;7.60;;;;;;;-144.47;56.47;53279.16;5007505;28;20411;-67
2022/06/11 04:52:48;;;;;;;27.02;7.28;;;;;;;-144.47;56.33;53251.34;5009342;28;20026;-68
2022/06/11 04:55:14;;;;;;;33.85;8.02;;;;;;;-144.47;56.32;53261.28;5009540;28;20071;-69
2022/06/11 04:57:43;;;;;;;21.20;6.30;;;;;;;-144.47;56.54;53239.44;4991386;28;20472;-65
2022/06/11 05:00:10;;;;;;;18.63;6.38;;;;;;;-144.47;56.64;53251.34;5008713;28;20026;-68
2022/06/11 05:02:35;;;;;;;22.52;7.00;;;;;;;-144.47;56.64;53201.69;5009042;28;20050;-68
2022/06/11 05:05:01;;;;;;;18.25;6.95;;;;;;;-144.47;56.76;53269.22;5008444;28;20145;-69
2022/06/11 05:07:27;;;;;;;24.08;7.78;;;;;;;-144.47;56.93;53249.38;5011250;28;20033;-68
2022/06/11 05:09:52;;;;;;;22.10;7.00;;;;;;;-144.47;57.00;53267.25;5012972;28;20511;-68
2022/06/11 05:12:18;;;;;;;18.67;6.90;;;;;;;-144.47;56.89;53253.34;5013323;28;20079;-68
2022/06/11 05:14:43;;;;;;;19.08;6.75;;;;;;;-144.47;56.76;53261.28;5011477;28;20054;-67
2022/06/11 05:17:08;;;;;;;20.85;7.53;;;;;;;-144.47;56.71;53209.66;5013117;28;20535;-68
2022/06/11 05:19:34;;;;;;;20.50;6.88;;;;;;;-144.47;56.86;53259.31;5012423;28;20060;-70
2022/06/11 05:22:00;;;;;;;20.45;6.75;;;;;;;-144.47;56.71;53241.44;5013655;28;20030;-66
2022/06/11 05:24:25;;;;;;;24.70;6.68;;;;;;;-144.47;56.49;53283.13;5009825;28;20075;-66
2022/06/11 05:26:58;;;;;;;19.38;6.53;;;;;;;-144.47;56.24;53245.41;5013067;28;20022;-70
2022/06/11 05:29:31;;;;;;;24.10;6.63;;;;;;;-144.47;55.90;53293.06;5012336;28;20033;-66
2022/06/11 05:31:57;;;;;;;18.60;6.57;;;;;;;-144.47;55.33;53235.47;5012266;28;20037;-67
2022/06/11 05:34:23;;;;;;;24.90;5.90;;;;;;;-144.47;55.22;53211.63;5007561;28;20048;-67
2022/06/11 05:36:49;;;;;;;11.77;6.07;;;;;;;-144.47;55.10;53269.22;5013300;28;20471;-68
2022/06/11 05:39:14;;;;;;;26.95;6.35;;;;;;;-144.47;54.93;53233.47;5012525;28;20104;-68
2022/06/11 05:41:40;;;;;;;18.30;6.55;;;;;;;-144.47;54.49;53247.38;5012751;28;20033;-68
2022/06/11 05:44:06;;;;;;;22.33;6.13;;;;;;;-144.47;54.10;53267.25;5012070;28;21237;-68
2022/06/11 05:46:33;;;;;;;23.63;7.35;;;;;;;-144.47;54.25;53221.56;5006360;28;20112;-68
2022/06/11 05:49:03;;;;;;;16.50;6.07;;;;;;;-144.47;53.68;53237.44;5019638;28;20099;-68
2022/06/11 05:51:40;;;;;;;16.63;6.35;;;;;;;-144.47;53.53;53221.56;5023082;28;20078;-67
2022/06/11 05:54:10;;;;;;;25.80;6.47;;;;;;;-144.47;53.64;53213.63;5016071;28;20430;-66
2022/06/11 05:56:37;;;;;;;12.70;5.20;;;;;;;-144.47;52.52;53261.28;5012859;28;20033;-64
2022/06/11 05:59:13;;;;;;;21.27;5.82;;;;;;;-144.47;52.05;53213.63;4999002;28;20045;-66
2022/06/11 06:01:40;;;;;;;15.40;6.03;;;;;;;-144.47;51.60;53209.66;5007489;28;20164;-66
2022/06/11 06:04:07;;;;;;;14.65;5.20;;;;;;;-144.47;51.35;53217.59;4998459;28;20395;-67
2022/06/11 06:06:32;;;;;;;19.77;5.25;;;;;;;-144.47;51.47;53225.53;5010761;28;20033;-67
2022/06/11 06:08:58;;;;;;;18.35;5.80;;;;;;;-144.47;51.32;53239.44;5014947;28;20022;-64
2022/06/11 06:11:25;;;;;;;15.68;5.72;;;;;;;-144.47;51.09;53267.25;5012160;28;20038;-65
2022/06/11 06:13:51;;;;;;;19.85;5.15;;;;;;;-144.47;50.90;53231.50;5010855;28;20029;-64
2022/06/11 06:16:20;;;;;;;18.65;5.80;;;;;;;-144.47;50.42;53229.50;5012268;28;20447;-66
2022/06/11 06:18:47;;;;;;;17.60;4.70;;;;;;;-144.47;50.84;53209.66;5005785;28;20022;-62
2022/06/11 06:21:13;;;;;;;20.05;5.10;;;;;;;-144.47;50.82;53225.53;5007775;28;20423;-68
2022/06/11 06:23:39;;;;;;;13.07;5.30;;;;;;;-144.47;50.42;53209.66;5009646;28;20018;-65
2022/06/11 06:26:05;;;;;;;12.82;5.40;;;;;;;-144.47;50.42;53241.44;5013266;28;20055;-68
2022/06/11 06:28:31;;;;;;;13.60;5.70;;;;;;;-144.47;49.84;53205.66;4992872;28;20018;-67
2022/06/11 06:30:58;;;;;;;16.83;5.32;;;;;;;-144.47;49.99;53217.59;5010698;28;20029;-68
2022/06/11 06:33:24;;;;;;;10.95;5.25;;;;;;;-144.47;49.98;53241.44;5008317;28;20033;-66
2022/06/11 06:35:50;;;;;;;15.27;5.68;;;;;;;-144.47;50.03;53213.63;5017829;28;20392;-66
2022/06/11 06:38:16;;;;;;;17.20;4.72;;;;;;;-144.47;49.80;53237.44;5021372;28;20056;-65
2022/06/11 06:40:42;;;;;;;16.17;4.65;;;;;;;-144.47;49.76;53225.53;5017045;28;20486;-65
2022/06/11 06:43:08;;;;;;;14.88;4.88;;;;;;;-144.47;49.73;53201.69;5011319;28;20114;-67
2022/06/11 06:45:34;;;;;;;19.65;4.68;;;;;;;-144.47;49.69;53199.72;5011491;28;20397;-67
2022/06/11 06:48:01;;;;;;;17.80;5.35;;;;;;;-144.47;49.72;53201.69;5001062;28;20030;-65
2022/06/11 06:50:26;;;;;;;9.88;4.50;;;;;;;-144.47;49.68;53209.66;5007348;28;20495;-65
2022/06/11 06:52:52;;;;;;;12.57;5.07;;;;;;;-144.47;49.73;53195.75;5011058;28;20018;-67
2022/06/11 06:55:17;;;;;;;14.35;5.53;;;;;;;-144.47;49.78;53193.75;5011815;28;20472;-66
2022/06/11 06:57:43;;;;;;;22.65;5.78;;;;;;;-144.47;49.74;53223.56;5011162;28;20538;-67
2022/06/11 07:00:09;;;;;;;16.83;5.00;;;;;;;-144.47;49.21;53197.72;4993116;28;20026;-68
2022/06/11 07:02:34;;;;;;;16.13;4.70;;;;;;;-144.47;49.04;53181.84;5006068;28;20097;-68
2022/06/11 07:05:00;;;;;;;22.30;5.35;;;;;;;-144.47;49.38;53181.84;5010097;28;20504;-66
2022/06/11 07:07:26;;;;;;;17.00;4.90;;;;;;;-144.47;47.79;53146.09;5011529;28;20053;-66
2022/06/11 07:09:53;;;;;;;12.48;4.45;;;;;;;-144.47;48.09;53173.88;5008402;28;20064;-66
2022/06/11 07:12:19;;;;;;;16.27;4.93;;;;;;;-144.47;47.75;53191.78;5011118;28;20034;-66
2022/06/11 07:14:44;;;;;;;23.45;4.82;;;;;;;-144.47;48.39;53193.75;5011040;28;20040;-67
2022/06/11 07:17:11;;;;;;;17.02;5.07;;;;;;;-144.47;48.21;53199.72;5010600;28;20482;-66
2022/06/11 07:19:45;;;;;;;15.23;5.38;;;;;;;-144.47;48.51;53179.84;5010043;28;20092;-66
2022/06/11 07:22:19;;;;;;;15.82;4.72;;;;;;;-144.47;47.94;53197.72;5012546;28;20026;-66
2022/06/11 07:24:45;;;;;;;17.55;4.60;;;;;;;-144.47;47.08;53189.78;5010530;28;20014;-66
2022/06/11 07:27:17;;;;;;;11.88;4.93;;;;;;;-144.47;47.40;53173.88;5010569;28;20373;-66
2022/06/11 07:29:51;;;;;;;15.05;3.95;;;;;;;-144.47;47.07;53195.75;5007242;28;20398;-67
2022/06/11 07:32:20;;;;;;;21.60;4.78;;;;;;;-144.47;46.32;53219.56;5008418;28;20057;-67
2022/06/11 07:34:45;;;;;;;11.20;4.28;;;;;;;-144.47;45.88;53181.84;5002509;28;20475;-66
2022/06/11 07:37:12;;;;;;;20.42;4.35;;;;;;;-144.47;45.93;53193.75;5012308;28;20049;-66
2022/06/11 07:39:37;;;;;;;7.45;3.20;;;;;;;-144.47;45.31;53201.69;5012237;28;20479;-65
2022/06/11 07:42:03;;;;;;;15.95;3.63;;;;;;;-144.47;44.13;53163.97;5010378;28;20106;-66
2022/06/11 07:44:29;;;;;;;10.07;3.50;;;;;;;-144.47;43.99;53191.78;5005729;28;20029;-64
2022/06/11 07:46:54;;;;;;;17.98;4.75;;;;;;;-144.47;42.92;53154.03;5019267;28;20017;-66
2022/06/11 07:49:19;;;;;;;9.20;3.65;;;;;;;-144.47;43.10;53193.75;4998187;28;20018;-64
2022/06/11 07:51:45;;;;;;;12.93;3.30;;;;;;;-144.47;42.42;53167.94;5007665;28;20105;-66
2022/06/11 07:54:10;;;;;;;11.85;3.33;;;;;;;-144.47;41.97;53156.00;5005815;28;20096;-65
2022/06/11 07:56:38;;;;;;;7.10;3.35;;;;;;;-144.47;41.38;53201.69;5009366;28;20488;-68
2022/06/11 07:59:04;;;;;;;19.85;3.78;;;;;;;-144.47;41.14;53150.06;5002200;28;20281;-65
2022/06/11 08:01:30;;;;;;;16.60;4.10;;;;;;;-144.47;40.81;53142.09;5009297;28;20028;-66
2022/06/11 08:03:55;;;;;;;11.90;3.75;;;;;;;-144.47;40.87;53122.25;5008426;28;20025;-67
2022/06/11 08:06:20;;;;;;;10.35;3.50;;;;;;;-144.47;40.43;53173.88;4991408;28;20041;-65
2022/06/11 08:08:49;;;;;;;8.05;3.35;;;;;;;-144.47;39.90;53158.00;5008848;28;20065;-66
2022/06/11 08:11:14;;;;;;;19.77;4.78;;;;;;;-144.47;40.18;53154.03;5009666;28;20494;-67
2022/06/11 08:13:40;;;;;;;21.52;3.83;;;;;;;-144.47;40.18;53140.13;5008400;28;20112;-67
2022/06/11 08:16:06;;;;;;;11.88;3.35;;;;;;;-144.47;39.54;53138.13;5009115;28;20029;-68
2022/06/11 08:18:31;;;;;;;14.30;4.18;;;;;;;-144.47;39.54;53169.91;5008313;28;20065;-66
2022/06/11 08:20:57;;;;;;;11.38;3.28;;;;;;;-144.47;39.12;53167.94;5009454;28;20029;-68
2022/06/11 08:23:23;;;;;;;11.63;3.85;;;;;;;-144.47;38.74;53161.97;5009843;28;20034;-68
2022/06/11 08:25:49;;;;;;;10.48;3.85;;;;;;;-144.47;39.36;53112.31;5009479;28;20463;-65
2022/06/11 08:28:15;;;;;;;8.63;3.28;;;;;;;-144.47;38.73;53134.16;5009676;28;20112;-66
2022/06/11 08:30:41;;;;;;;13.93;3.50;;;;;;;-144.47;38.94;53122.25;5008513;28;20018;-65
2022/06/11 08:33:07;;;;;;;16.00;4.20;;;;;;;-144.47;39.43;53146.09;5008753;28;20545;-66
2022/06/11 08:35:34;;;;;;;14.52;3.95;;;;;;;-144.47;37.97;53116.28;5009364;28;20040;-67
2022/06/11 08:38:00;;;;;;;12.75;3.83;;;;;;;-144.47;37.80;53160.00;5009552;28;20360;-65
2022/06/11 08:40:32;;;;;;;14.75;3.53;;;;;;;-144.47;38.13;53148.06;5006017;28;20053;-67
2022/06/11 08:43:35;;;;;;;20.48;3.08;;;;;;;-144.47;37.55;53173.88;5006286;28;20045;-68
2022/06/11 08:46:01;;;;;;;14.52;2.42;;;;;;;-144.47;36.23;53110.31;5005221;28;20045;-69
2022/06/11 08:48:39;;;;;;;9.70;2.80;;;;;;;-144.47;36.77;53130.19;5002167;28;20683;-67
2022/06/11 08:51:36;;;;;;;12.68;2.85;;;;;;;-144.47;36.28;53130.19;5008963;28;20060;-69
2022/06/11 08:54:07;;;;;;;6.88;2.45;;;;;;;-144.47;36.07;53112.31;5008742;28;20037;-67
2022/06/11 08:56:54;;;;;;;17.98;3.70;;;;;;;-144.47;35.98;53108.34;5009081;28;20026;-66
2022/06/11 08:59:37;;;;;;;14.32;2.85;;;;;;;-144.47;36.22;53160.00;5008176;28;20026;-69
2022/06/11 09:02:18;;;;;;;10.40;3.17;;;;;;;-144.47;36.25;53080.53;5007727;28;20396;-64
2022/06/11 09:04:52;;;;;;;16.60;3.40;;;;;;;-144.47;36.16;53173.88;5006320;28;20434;-65
2022/06/11 09:07:45;;;;;;;11.63;2.60;;;;;;;-144.47;36.06;53130.19;5005928;28;20030;-65
2022/06/11 09:10:33;;;;;;;16.90;3.33;;;;;;;-144.47;35.77;53126.22;5003800;28;20032;-68
2022/06/11 09:13:01;;;;;;;11.27;2.63;;;;;;;-144.47;35.88;53136.16;5011448;28;20037;-64
2022/06/11 09:15:26;;;;;;;15.30;3.35;;;;;;;-144.47;35.89;53094.44;5013406;28;20034;-65
2022/06/11 09:18:10;;;;;;;15.02;3.50;;;;;;;-144.47;35.60;53118.28;4990679;28;20037;-68
2022/06/11 09:21:08;;;;;;;14.75;3.15;;;;;;;-144.47;35.73;53106.34;5004609;28;20117;-65
2022/06/11 09:23:38;;;;;;;17.40;3.25;;;;;;;-144.47;34.84;53118.28;4963486;28;20044;-64
2022/06/11 09:26:25;;;;;;;10.02;3.00;;;;;;;-144.47;35.03;53082.53;5001642;28;20037;-66
2022/06/11 09:29:12;;;;;;;14.35;3.58;;;;;;;-144.47;34.71;53108.34;5000886;28;20097;-68
2022/06/11 09:31:43;;;;;;;12.57;3.40;;;;;;;-144.47;35.38;53138.13;4981218;28;20094;-69
2022/06/11 09:34:11;;;;;;;14.65;2.80;;;;;;;-144.47;35.10;53082.53;5000498;28;20113;-66
2022/06/11 09:36:45;;;;;;;11.35;3.15;;;;;;;-144.47;35.27;53080.53;5001222;28;20487;-69
2022/06/11 09:39:33;;;;;;;12.27;2.97;;;;;;;-144.47;35.36;53118.28;5000036;28;20042;-66
2022/06/11 09:42:16;;;;;;;9.67;3.50;;;;;;;-144.47;34.77;53082.53;4980680;28;20045;-68
2022/06/11 09:44:56;;;;;;;15.52;3.92;;;;;;;-144.47;34.83;53096.41;5000451;28;20041;-67
2022/06/11 09:47:46;;;;;;;11.90;2.88;;;;;;;-144.47;34.76;53094.44;5001031;28;20026;-72
2022/06/11 09:50:23;;;;;;;12.82;3.22;;;;;;;-144.47;33.81;53110.31;4999535;28;20033;-70
2022/06/11 09:53:13;;;;;;;7.70;2.88;;;;;;;-144.47;33.97;53078.53;5001019;28;20041;-67
2022/06/11 09:56:22;;;;;;;10.65;3.38;;;;;;;-144.47;35.01;53122.25;5004439;28;20025;-68
2022/06/11 09:59:06;;;;;;;16.63;3.30;;;;;;;-144.47;34.93;53110.31;4974691;28;21580;-68
2022/06/11 10:02:09;;;;;;;12.65;3.10;;;;;;;-144.47;35.32;53104.38;4981763;28;20029;-70
2022/06/11 10:04:40;;;;;;;13.23;4.22;;;;;;;-144.47;35.58;53126.22;5003532;28;20504;-68
2022/06/11 10:07:30;;;;;;;9.43;3.50;;;;;;;-144.47;36.03;53161.97;5004729;28;20685;-68
2022/06/11 10:10:04;;;;;;;19.42;4.07;;;;;;;-144.47;36.49;53106.34;5002960;28;20048;-67
2022/06/11 10:12:54;;;;;;;15.93;3.13;;;;;;;-144.47;36.56;53136.16;5027825;22;20044;-68
2022/06/11 10:15:34;;;;;;;13.73;3.33;;;;;;;-144.47;36.58;53140.13;5022347;28;20469;-67
2022/06/11 10:18:31;;;;;;;8.88;3.60;;;;;;;-144.47;36.28;53144.09;5022167;28;20091;-68
2022/06/11 10:21:04;;;;;;;14.50;3.55;;;;;;;-144.47;35.98;53130.19;5020856;28;20041;-68
2022/06/11 10:23:41;;;;;;;17.90;3.00;;;;;;;-144.47;34.84;53122.25;4986094;28;20612;-67
2022/06/11 10:26:12;;;;;;;11.43;3.77;;;;;;;-144.47;34.62;53120.25;5005341;28;20041;-66
2022/06/11 10:28:45;;;;;;;11.43;2.53;;;;;;;-144.47;34.37;53078.53;5002273;28;20037;-68
2022/06/11 10:31:13;;;;;;;16.58;3.00;;;;;;;-144.47;34.59;53092.44;5002045;28;20034;-70
2022/06/11 10:33:47;;;;;;;12.95;3.22;;;;;;;-144.47;34.06;53142.09;5002922;28;20109;-66
2022/06/11 10:36:21;;;;;;;13.98;3.22;;;;;;;-144.47;34.30;53142.09;5002753;28;20222;-68
2022/06/11 10:38:56;;;;;;;14.25;3.85;;;;;;;-144.47;34.40;53104.38;5001231;28;20121;-69
2022/06/11 10:42:11;;;;;;;13.90;3.00;;;;;;;-144.47;33.89;53098.41;4994338;28;20144;-68
2022/06/11 10:44:39;;;;;;;16.75;3.58;;;;;;;-144.47;33.86;53100.41;4986723;28;20125;-69
2022/06/11 10:47:14;;;;;;;14.35;3.63;;;;;;;-144.47;33.54;53080.53;4999973;28;20040;-70
2022/06/11 10:49:39;;;;;;;17.85;3.22;;;;;;;-144.47;33.73;53106.34;4998796;28;20215;-65
2022/06/11 10:52:23;;;;;;;19.02;4.35;;;;;;;-144.47;33.59;53104.38;4994229;28;20100;-68
2022/06/11 10:54:48;;;;;;;8.15;3.08;;;;;;;-144.47;33.62;53124.22;5003079;28;20121;-69
2022/06/11 10:57:25;;;;;;;17.48;2.97;;;;;;;-144.47;33.54;53106.34;5000920;28;20555;-68
2022/06/11 10:59:58;;;;;;;13.82;3.70;;;;;;;-144.47;33.81;53120.25;4997208;28;20026;-68
2022/06/11 11:02:37;;;;;;;8.07;3.03;;;;;;;-144.47;33.61;53104.38;4999745;28;20030;-67
2022/06/11 11:05:14;;;;;;;21.27;3.30;;;;;;;-144.47;33.36;53098.41;4993201;28;20040;-70
2022/06/11 11:07:43;;;;;;;12.27;3.05;;;;;;;-144.47;33.02;53084.50;5000745;28;20796;-70
2022/06/11 11:10:29;;;;;;;12.20;2.65;;;;;;;-144.47;32.66;53102.38;5000328;28;20037;-69
2022/06/11 11:13:01;;;;;;;14.02;3.30;;;;;;;-144.47;33.13;53146.09;5002054;28;20059;-69
2022/06/11 11:15:36;;;;;;;17.02;3.35;;;;;;;-144.47;33.05;53100.41;4983299;28;20083;-69
2022/06/11 11:18:11;;;;;;;12.93;3.08;;;;;;;-144.47;33.16;53096.41;4998070;28;20037;-69
2022/06/11 11:20:45;;;;;;;13.05;3.42;;;;;;;-144.47;33.06;53092.44;4998736;28;20118;-68
2022/06/11 11:23:20;;;;;;;9.98;2.70;;;;;;;-144.47;32.87;53118.28;5000746;28;20026;-70
2022/06/11 11:25:49;;;;;;;8.20;2.85;;;;;;;-144.47;32.96;53108.34;5001580;28;20105;-68
2022/06/11 11:28:24;;;;;;;13.35;2.95;;;;;;;-144.47;32.96;53106.34;5001961;28;20034;-70
2022/06/11 11:31:01;;;;;;;11.40;2.85;;;;;;;-144.47;32.70;53102.38;4999103;28;20097;-69
2022/06/11 11:33:36;;;;;;;19.45;3.45;;;;;;;-144.47;32.23;53102.38;4983246;28;20491;-70